Time;durP1;ratioP1;P1;durP2;ratioP2;P2;SDS_P1;SDS_P2;PMS_P1;PMS_P2;Temp;Humidity;BMP_temperature;BMP_pressure;BME280_temperature;BME280_humidity;BME280_pressure;Samples;Min_cycle;Max_cycle;Signal;HPM_P1;HPM_P2
2022/12/03 00:01:56;;;;;;;49.10;29.15;;;6.00;99.90;;;;;;5051825;28;20077;-88
2022/12/03 00:04:22;;;;;;;51.72;30.70;;;5.80;99.90;;;;;;5052875;28;20028;-89
2022/12/03 00:06:47;;;;;;;51.78;29.42;;;5.50;99.90;;;;;;5051560;28;20024;-88
2022/12/03 00:09:13;;;;;;;48.45;28.85;;;5.60;99.90;;;;;;5053079;28;20092;-89
2022/12/03 00:11:39;;;;;;;48.50;28.27;;;5.50;99.90;;;;;;5052532;28;20025;-88
2022/12/03 00:14:04;;;;;;;56.10;35.33;;;5.90;99.90;;;;;;5053035;28;20029;-89
2022/12/03 00:16:30;;;;;;;60.53;37.85;;;5.40;99.90;;;;;;5052915;28;20075;-89
2022/12/03 00:18:55;;;;;;;62.22;38.92;;;5.40;99.90;;;;;;5040009;28;20462;-89
2022/12/03 00:21:21;;;;;;;55.72;34.92;;;5.40;99.90;;;;;;5032949;28;20033;-88
2022/12/03 00:23:47;;;;;;;64.00;39.60;;;5.40;99.90;;;;;;5032198;28;20029;-89
2022/12/03 00:26:12;;;;;;;50.67;30.67;;;5.30;99.90;;;;;;5032391;28;20115;-89
2022/12/03 00:28:38;;;;;;;54.95;30.58;;;5.20;99.90;;;;;;5032799;28;20117;-88
2022/12/03 00:31:04;;;;;;;64.43;39.10;;;5.30;99.90;;;;;;5032578;28;20029;-88
2022/12/03 00:33:30;;;;;;;61.40;34.22;;;5.30;99.90;;;;;;5042934;28;20049;-89
2022/12/03 00:35:55;;;;;;;69.15;42.03;;;5.20;99.90;;;;;;5052417;28;20029;-88
2022/12/03 00:38:21;;;;;;;89.18;53.92;;;5.20;99.90;;;;;;5052603;28;20033;-88
2022/12/03 00:40:47;;;;;;;59.08;31.40;;;5.20;99.90;;;;;;5052194;28;20017;-89
2022/12/03 00:43:12;;;;;;;51.85;30.10;;;5.40;99.90;;;;;;5052454;28;20499;-88
2022/12/03 00:45:38;;;;;;;55.78;32.33;;;5.20;99.90;;;;;;5052380;28;20037;-88
2022/12/03 00:48:03;;;;;;;71.65;41.05;;;5.20;99.90;;;;;;5052596;28;20489;-89
2022/12/03 00:50:29;;;;;;;60.13;32.65;;;5.30;99.90;;;;;;5052450;28;20029;-88
2022/12/03 00:52:55;;;;;;;64.68;36.45;;;5.30;99.90;;;;;;5051254;28;20056;-89
2022/12/03 00:55:20;;;;;;;56.22;29.17;;;5.40;99.90;;;;;;5050649;28;20079;-89
2022/12/03 00:57:46;;;;;;;55.40;33.65;;;5.80;99.90;;;;;;5051578;28;20029;-89
2022/12/03 01:00:12;;;;;;;53.72;32.00;;;5.30;99.90;;;;;;5052555;28;20469;-89
2022/12/03 01:02:38;;;;;;;53.45;30.45;;;5.30;99.90;;;;;;5052412;28;20104;-88
2022/12/03 01:05:05;;;;;;;58.95;35.53;;;5.30;99.90;;;;;;5052233;28;20029;-89
2022/12/03 01:07:31;;;;;;;56.25;31.60;;;5.30;99.90;;;;;;5052467;28;20033;-89
2022/12/03 01:09:56;;;;;;;56.72;31.23;;;5.20;99.90;;;;;;5051979;28;20116;-88
2022/12/03 01:12:22;;;;;;;52.03;30.42;;;5.30;99.90;;;;;;5052396;28;20029;-88
2022/12/03 01:14:48;;;;;;;55.25;31.17;;;5.30;99.90;;;;;;5052186;28;20029;-89
2022/12/03 01:17:13;;;;;;;53.75;30.13;;;5.50;99.90;;;;;;5052247;28;20059;-89
2022/12/03 01:19:43;;;;;;;55.08;30.02;;;5.40;99.90;;;;;;5033025;28;20021;-89
2022/12/03 01:22:08;;;;;;;46.35;28.50;;;5.40;99.90;;;;;;5032396;28;20029;-88
2022/12/03 01:24:34;;;;;;;51.67;30.15;;;5.40;99.90;;;;;;5031551;28;20521;-88
2022/12/03 01:27:00;;;;;;;52.83;29.15;;;5.30;99.90;;;;;;5032474;28;20030;-89
2022/12/03 01:29:26;;;;;;;55.60;29.58;;;5.30;99.90;;;;;;5032374;28;20109;-89
2022/12/03 01:34:35;;;;;;;57.80;29.17;;;5.40;99.90;;;;;;5051768;28;20120;-89
2022/12/03 01:37:01;;;;;;;58.58;31.08;;;5.50;99.90;;;;;;5056066;28;20493;-88
2022/12/03 01:39:27;;;;;;;61.92;30.50;;;5.40;99.90;;;;;;5055294;28;20029;-88
2022/12/03 01:41:54;;;;;;;56.75;30.67;;;5.40;99.90;;;;;;5055817;28;20099;-89
2022/12/03 01:44:28;;;;;;;48.85;28.73;;;5.40;99.90;;;;;;5055737;28;20397;-89
2022/12/03 01:46:56;;;;;;;56.60;30.02;;;5.40;99.90;;;;;;5055818;28;20025;-89
2022/12/03 01:49:28;;;;;;;52.30;29.50;;;5.40;99.90;;;;;;5054392;28;20390;-89
2022/12/03 01:51:55;;;;;;;52.13;29.55;;;5.40;99.90;;;;;;5055280;28;20398;-88
2022/12/03 01:54:26;;;;;;;54.13;30.10;;;5.40;99.90;;;;;;5055433;28;20485;-89
2022/12/03 01:56:53;;;;;;;59.72;30.40;;;5.40;99.90;;;;;;5055566;28;20104;-88
2022/12/03 01:59:22;;;;;;;53.78;29.13;;;5.40;99.90;;;;;;5055493;28;20455;-88
2022/12/03 02:01:48;;;;;;;52.05;29.13;;;5.70;99.90;;;;;;5055456;28;20025;-88
2022/12/03 02:04:16;;;;;;;53.10;29.50;;;5.40;99.90;;;;;;5055396;28;20037;-88
2022/12/03 02:06:43;;;;;;;56.30;30.83;;;5.70;99.90;;;;;;5053904;28;20025;-88
2022/12/03 02:09:11;;;;;;;49.40;29.42;;;5.30;99.90;;;;;;5055806;28;20456;-88
2022/12/03 02:11:41;;;;;;;53.28;29.20;;;5.60;99.90;;;;;;5055160;28;20049;-88
2022/12/03 02:14:11;;;;;;;58.88;30.98;;;5.40;99.90;;;;;;5055289;28;20036;-89
2022/12/03 02:16:39;;;;;;;53.08;29.65;;;5.40;99.90;;;;;;5055216;28;20072;-88
2022/12/03 02:19:15;;;;;;;54.75;30.63;;;5.70;99.90;;;;;;5040530;28;20033;-89
2022/12/03 02:22:03;;;;;;;57.80;32.63;;;5.40;99.90;;;;;;5034855;28;20318;-88
2022/12/03 02:25:04;;;;;;;52.08;29.85;;;5.40;99.90;;;;;;5034652;28;20464;-89
2022/12/03 02:27:30;;;;;;;58.55;30.92;;;5.40;99.90;;;;;;5032748;28;20121;-88
2022/12/03 02:30:13;;;;;;;54.70;30.13;;;5.40;99.90;;;;;;5034709;28;20073;-89
2022/12/03 02:32:39;;;;;;;53.47;30.60;;;5.40;99.90;;;;;;5038177;28;20104;-89
2022/12/03 02:35:05;;;;;;;56.20;30.67;;;5.40;99.90;;;;;;5054732;28;20108;-89
2022/12/03 02:37:35;;;;;;;54.33;29.55;;;5.50;99.90;;;;;;5054598;28;20063;-89
2022/12/03 02:40:07;;;;;;;55.08;29.75;;;5.70;99.90;;;;;;5054768;28;20033;-88
2022/12/03 02:42:35;;;;;;;57.13;30.77;;;5.50;99.90;;;;;;5054405;28;20021;-89
2022/12/03 02:45:18;;;;;;;56.38;31.10;;;5.50;99.90;;;;;;5054497;28;20045;-88
2022/12/03 02:47:48;;;;;;;53.90;29.95;;;5.60;99.90;;;;;;5054066;28;20025;-88
2022/12/03 02:50:19;;;;;;;55.88;30.33;;;5.50;99.90;;;;;;5054092;28;20029;-89
2022/12/03 02:52:46;;;;;;;53.83;29.92;;;5.50;99.90;;;;;;5054480;28;20482;-88
2022/12/03 02:55:16;;;;;;;53.97;29.92;;;5.50;99.90;;;;;;5054375;28;20029;-89
2022/12/03 02:57:44;;;;;;;54.00;29.20;;;5.50;99.90;;;;;;5054499;28;20021;-89
2022/12/03 03:00:11;;;;;;;51.67;28.67;;;5.80;99.90;;;;;;5054312;28;20025;-88
2022/12/03 03:02:39;;;;;;;50.88;29.75;;;5.50;99.90;;;;;;5053025;28;20068;-88
2022/12/03 03:05:06;;;;;;;49.80;29.15;;;5.40;99.90;;;;;;5053762;28;20051;-88
2022/12/03 03:07:33;;;;;;;51.63;27.75;;;5.50;99.90;;;;;;5052843;28;20096;-88
2022/12/03 03:10:00;;;;;;;52.92;28.63;;;5.50;99.90;;;;;;5054240;28;20432;-88
2022/12/03 03:12:26;;;;;;;58.20;30.70;;;5.40;99.90;;;;;;5054039;28;20021;-89
2022/12/03 03:14:52;;;;;;;52.47;28.83;;;5.90;99.90;;;;;;5052691;28;20025;-89
2022/12/03 03:17:17;;;;;;;51.63;27.92;;;5.50;99.90;;;;;;5053941;28;20056;-88
2022/12/03 03:19:43;;;;;;;50.35;28.67;;;5.50;99.90;;;;;;5033821;28;20043;-89
2022/12/03 03:22:10;;;;;;;50.28;27.98;;;5.50;99.90;;;;;;5034061;28;20385;-88
2022/12/03 03:24:36;;;;;;;50.67;29.70;;;5.50;99.90;;;;;;5033483;28;20600;-89
2022/12/03 03:27:02;;;;;;;51.70;27.10;;;5.50;99.90;;;;;;5033821;28;20029;-89
2022/12/03 03:29:29;;;;;;;48.25;27.83;;;5.40;99.90;;;;;;5032860;28;20065;-89
2022/12/03 03:31:54;;;;;;;48.17;27.67;;;5.40;99.90;;;;;;5033753;28;20034;-88
2022/12/03 03:34:20;;;;;;;51.55;28.63;;;5.50;99.90;;;;;;5050619;28;20028;-89
2022/12/03 03:36:46;;;;;;;49.70;28.80;;;5.40;99.90;;;;;;5053589;28;20029;-88
2022/12/03 03:39:12;;;;;;;52.97;28.88;;;5.40;99.90;;;;;;5053532;28;20444;-88
2022/12/03 03:41:39;;;;;;;50.97;27.98;;;5.60;99.90;;;;;;5053411;28;20511;-88
2022/12/03 03:44:06;;;;;;;52.17;29.40;;;5.40;99.90;;;;;;5053475;28;20037;-89
2022/12/03 03:46:34;;;;;;;57.83;30.42;;;5.30;99.90;;;;;;5053277;28;20033;-88
2022/12/03 03:49:01;;;;;;;53.08;30.90;;;5.40;99.90;;;;;;5052978;28;20020;-88
2022/12/03 03:51:26;;;;;;;54.45;29.58;;;5.40;99.90;;;;;;5053372;28;20052;-88
2022/12/03 03:53:52;;;;;;;54.17;29.52;;;5.40;99.90;;;;;;5053289;28;20024;-88
2022/12/03 03:56:19;;;;;;;52.63;29.50;;;5.80;99.90;;;;;;5051912;28;20473;-88
2022/12/03 03:58:45;;;;;;;55.15;30.17;;;5.40;99.90;;;;;;5052417;28;20021;-88
2022/12/03 04:01:12;;;;;;;55.72;30.30;;;5.50;99.90;;;;;;5053078;28;20493;-88
2022/12/03 04:03:39;;;;;;;51.50;28.27;;;5.50;99.90;;;;;;5052780;28;20029;-88
2022/12/03 04:06:05;;;;;;;55.33;30.45;;;5.50;99.90;;;;;;5053024;28;20118;-88
2022/12/03 04:08:30;;;;;;;54.10;29.55;;;5.50;99.90;;;;;;5052776;28;20496;-89
2022/12/03 04:13:40;;;;;;;51.92;29.02;;;5.40;99.90;;;;;;5052884;28;20111;-88
2022/12/03 04:16:06;;;;;;;55.03;30.10;;;5.60;99.90;;;;;;5052889;28;20107;-88
2022/12/03 04:18:44;;;;;;;48.72;28.98;;;5.40;99.90;;;;;;5042633;28;20033;-89
2022/12/03 04:23:54;;;;;;;47.17;27.23;;;5.40;99.90;;;;;;5032736;28;20080;-89
2022/12/03 04:29:04;;;;;;;52.33;28.95;;;5.40;99.90;;;;;;5032824;28;20448;-88
2022/12/03 04:36:58;;;;;;;47.53;27.27;;;5.50;99.90;;;;;;5052889;28;20032;-88
2022/12/03 04:39:24;;;;;;;50.55;27.85;;;5.50;99.90;;;;;;5051295;28;20026;-88
2022/12/03 04:41:49;;;;;;;51.85;28.60;;;5.50;99.90;;;;;;5052518;28;20481;-88
2022/12/03 04:44:36;;;;;;;52.17;28.38;;;5.50;99.90;;;;;;5052299;28;20374;-89
2022/12/03 04:47:11;;;;;;;53.72;29.65;;;5.60;99.90;;;;;;5052127;28;20029;-88
2022/12/03 04:49:42;;;;;;;54.70;30.40;;;5.60;99.90;;;;;;5052470;28;20033;-88
2022/12/03 04:52:10;;;;;;;48.10;28.27;;;5.60;99.90;;;;;;5052510;28;20029;-89
2022/12/03 04:54:36;;;;;;;50.83;29.58;;;5.50;99.90;;;;;;5052253;28;20029;-89
2022/12/03 04:57:03;;;;;;;53.50;30.35;;;5.40;99.90;;;;;;5052410;28;20027;-88
2022/12/03 04:59:29;;;;;;;51.30;30.10;;;5.40;99.90;;;;;;5052342;28;20021;-88
2022/12/03 05:01:54;;;;;;;51.35;28.10;;;5.40;99.90;;;;;;5051940;28;20485;-89
2022/12/03 05:04:20;;;;;;;50.20;29.48;;;5.40;99.90;;;;;;5052203;28;20017;-88
2022/12/03 05:06:46;;;;;;;49.90;29.23;;;5.50;99.90;;;;;;5052306;28;20508;-88
2022/12/03 05:09:12;;;;;;;48.53;29.55;;;5.50;99.90;;;;;;5053158;28;20025;-88
2022/12/03 05:11:38;;;;;;;49.58;29.33;;;5.50;99.90;;;;;;5055070;28;20050;-88
2022/12/03 05:14:04;;;;;;;51.20;29.13;;;5.40;99.90;;;;;;5056306;28;20025;-88
2022/12/03 05:16:30;;;;;;;57.65;30.60;;;5.50;99.90;;;;;;5055891;28;20025;-88
2022/12/03 05:18:55;;;;;;;53.58;28.60;;;5.50;99.90;;;;;;5041749;28;20030;-89
2022/12/03 05:21:21;;;;;;;53.83;29.33;;;5.50;99.90;;;;;;5036185;28;20438;-88
2022/12/03 05:23:47;;;;;;;50.67;28.67;;;5.40;99.90;;;;;;5036057;28;20489;-88
2022/12/03 05:26:12;;;;;;;47.65;28.90;;;5.60;99.90;;;;;;5035879;28;20045;-89
2022/12/03 05:28:38;;;;;;;52.15;28.67;;;5.50;99.90;;;;;;5036095;28;20112;-88
2022/12/03 05:31:04;;;;;;;47.85;28.52;;;5.50;99.90;;;;;;5035643;28;20029;-89
2022/12/03 05:33:30;;;;;;;54.38;28.83;;;5.50;99.90;;;;;;5046279;28;20100;-89
2022/12/03 05:35:56;;;;;;;51.10;29.98;;;5.60;99.90;;;;;;5055846;28;20104;-88
2022/12/03 05:38:21;;;;;;;46.55;28.77;;;5.60;99.90;;;;;;5055843;28;20025;-88
2022/12/03 05:40:47;;;;;;;50.63;27.98;;;5.80;99.90;;;;;;5055862;28;20367;-89
2022/12/03 05:43:13;;;;;;;50.65;27.70;;;5.60;99.90;;;;;;5055614;28;20032;-88
2022/12/03 05:45:40;;;;;;;50.25;28.95;;;5.60;99.90;;;;;;5055207;28;20112;-89
2022/12/03 05:48:08;;;;;;;49.60;29.38;;;5.80;99.90;;;;;;5055704;28;20025;-88
2022/12/03 05:50:36;;;;;;;47.53;28.40;;;5.40;99.90;;;;;;5055589;28;20082;-88
2022/12/03 05:53:02;;;;;;;50.95;27.45;;;5.40;99.90;;;;;;5055535;28;20021;-89
2022/12/03 05:55:28;;;;;;;47.58;29.05;;;5.40;99.90;;;;;;5055518;28;20465;-88
2022/12/03 05:57:54;;;;;;;50.95;28.95;;;5.40;99.90;;;;;;5054216;28;20036;-88
2022/12/03 06:00:29;;;;;;;47.83;28.20;;;5.40;99.90;;;;;;5055037;28;20032;-88
2022/12/03 06:02:54;;;;;;;49.42;29.30;;;5.40;99.90;;;;;;5055274;28;20465;-89
2022/12/03 06:05:21;;;;;;;52.63;31.00;;;5.20;99.90;;;;;;5055202;28;20048;-89
2022/12/03 06:07:49;;;;;;;56.92;31.80;;;5.20;99.90;;;;;;5055204;28;20017;-88
2022/12/03 06:10:23;;;;;;;56.55;32.17;;;5.30;99.90;;;;;;5055464;28;20070;-89
2022/12/03 06:12:49;;;;;;;52.22;30.92;;;5.30;99.90;;;;;;5053585;28;20499;-88
2022/12/03 06:15:15;;;;;;;55.78;32.13;;;5.30;99.90;;;;;;5053798;28;20035;-89
2022/12/03 06:17:41;;;;;;;60.45;30.40;;;5.30;99.90;;;;;;5052430;28;20104;-89
2022/12/03 06:20:07;;;;;;;56.60;29.88;;;5.30;99.90;;;;;;5034752;28;20104;-88
2022/12/03 06:22:33;;;;;;;60.08;33.75;;;5.40;99.90;;;;;;5034524;28;20081;-89
2022/12/03 06:24:58;;;;;;;59.78;32.45;;;5.40;99.90;;;;;;5034798;28;20045;-89
2022/12/03 06:27:24;;;;;;;46.75;27.08;;;5.40;99.90;;;;;;5034713;28;20413;-88
2022/12/03 06:29:50;;;;;;;51.63;28.20;;;5.30;99.90;;;;;;5034929;28;20022;-88
2022/12/03 06:32:15;;;;;;;49.10;27.42;;;5.20;99.90;;;;;;5034836;28;20040;-89
2022/12/03 06:34:41;;;;;;;47.20;26.83;;;5.30;99.90;;;;;;5053468;28;20021;-88
2022/12/03 06:37:07;;;;;;;48.38;27.70;;;5.30;99.90;;;;;;5054718;28;20052;-88
2022/12/03 06:39:32;;;;;;;55.55;30.67;;;5.80;99.90;;;;;;5053468;28;20021;-89
2022/12/03 06:41:58;;;;;;;54.17;31.13;;;5.40;99.90;;;;;;5054389;28;20025;-88
2022/12/03 06:44:23;;;;;;;51.05;31.50;;;5.70;99.90;;;;;;5054397;28;20024;-89
2022/12/03 06:46:49;;;;;;;49.47;28.63;;;5.30;99.90;;;;;;5054480;28;20421;-89
2022/12/03 06:49:15;;;;;;;50.78;27.63;;;5.30;99.90;;;;;;5054527;28;20025;-88
2022/12/03 06:51:40;;;;;;;50.92;27.67;;;5.20;99.90;;;;;;5054492;28;20116;-88
2022/12/03 06:54:06;;;;;;;51.75;28.85;;;5.20;99.90;;;;;;5054354;28;20385;-88
2022/12/03 06:56:32;;;;;;;52.13;29.17;;;5.20;99.90;;;;;;5053890;28;20025;-89
2022/12/03 06:58:57;;;;;;;496.90;307.20;;;5.20;99.90;;;;;;5054368;28;20025;-88
2022/12/03 07:01:24;;;;;;;157.32;93.38;;;5.50;99.90;;;;;;5054322;28;20031;-88
2022/12/03 07:03:50;;;;;;;236.23;146.07;;;5.20;99.90;;;;;;5052883;28;20025;-89
2022/12/03 07:06:15;;;;;;;252.65;184.23;;;5.20;99.90;;;;;;5054190;28;20082;-88
2022/12/03 07:08:41;;;;;;;117.72;83.30;;;5.20;99.90;;;;;;5052872;28;20021;-88
2022/12/03 07:11:29;;;;;;;49.63;30.25;;;5.20;99.90;;;;;;5053697;28;20021;-88
2022/12/03 07:13:56;;;;;;;66.93;42.70;;;5.20;99.90;;;;;;5054093;28;20033;-88
2022/12/03 07:16:22;;;;;;;47.22;29.40;;;5.20;99.90;;;;;;5054015;28;20024;-88
2022/12/03 07:18:48;;;;;;;51.80;31.95;;;5.20;99.90;;;;;;5042052;28;20124;-88
2022/12/03 07:21:13;;;;;;;52.75;30.60;;;5.20;99.90;;;;;;5033856;28;20482;-88
2022/12/03 07:23:39;;;;;;;44.75;27.63;;;5.10;99.90;;;;;;5033848;28;20087;-89
2022/12/03 07:26:04;;;;;;;48.83;29.02;;;5.10;99.90;;;;;;5033261;28;20099;-88
2022/12/03 07:28:30;;;;;;;50.63;30.75;;;5.20;99.90;;;;;;5033846;28;20103;-89
2022/12/03 07:30:55;;;;;;;52.05;32.45;;;5.30;99.90;;;;;;5033782;28;20044;-88
2022/12/03 07:33:21;;;;;;;53.58;30.75;;;5.40;99.90;;;;;;5042756;28;20020;-88
2022/12/03 07:35:47;;;;;;;49.95;27.00;;;5.40;99.90;;;;;;5053616;28;20424;-89
2022/12/03 07:38:13;;;;;;;47.35;28.60;;;5.50;99.90;;;;;;5053883;28;20023;-88
2022/12/03 07:40:38;;;;;;;43.80;25.90;;;5.50;99.90;;;;;;5053236;28;20033;-88
2022/12/03 07:43:04;;;;;;;46.97;26.58;;;5.60;99.90;;;;;;5053301;28;20027;-89
2022/12/03 07:45:29;;;;;;;45.70;26.48;;;5.60;99.90;;;;;;5053353;28;20051;-88
2022/12/03 07:47:55;;;;;;;49.90;27.60;;;5.90;99.90;;;;;;5053454;28;20031;-88
2022/12/03 07:50:21;;;;;;;42.78;25.45;;;6.00;99.90;;;;;;5053465;28;20029;-89
2022/12/03 07:52:46;;;;;;;49.63;30.48;;;6.00;99.90;;;;;;5053312;28;20028;-88
2022/12/03 07:55:12;;;;;;;60.67;40.22;;;5.60;99.90;;;;;;5051516;28;20366;-89
2022/12/03 07:57:38;;;;;;;49.78;31.13;;;6.00;99.90;;;;;;5051853;28;20036;-88
2022/12/03 08:00:05;;;;;;;54.92;31.63;;;5.50;99.90;;;;;;5053315;28;20497;-88
2022/12/03 08:02:31;;;;;;;63.30;38.90;;;5.50;99.90;;;;;;5053127;28;20017;-88
2022/12/03 08:04:56;;;;;;;56.13;34.83;;;5.50;99.90;;;;;;5052957;28;20082;-89
2022/12/03 08:07:22;;;;;;;49.00;29.58;;;5.50;99.90;;;;;;5053062;28;20025;-88
2022/12/03 08:09:48;;;;;;;51.22;32.90;;;5.50;99.90;;;;;;5052671;28;20048;-89
2022/12/03 08:12:46;;;;;;;66.20;41.42;;;5.60;99.90;;;;;;5053043;28;20604;-88
2022/12/03 08:15:22;;;;;;;47.78;28.02;;;5.60;99.90;;;;;;5052394;28;20397;-89
2022/12/03 08:17:54;;;;;;;85.97;55.58;;;5.70;99.90;;;;;;5049063;28;20113;-88
2022/12/03 08:20:23;;;;;;;104.93;71.82;;;5.80;99.90;;;;;;5032967;28;20033;-88
2022/12/03 08:22:51;;;;;;;60.88;41.58;;;5.80;99.90;;;;;;5032792;28;20036;-89
2022/12/03 08:25:29;;;;;;;42.88;24.25;;;5.80;99.90;;;;;;5032227;28;20160;-89
2022/12/03 08:28:01;;;;;;;66.30;41.15;;;5.80;99.90;;;;;;5032809;28;20494;-88
2022/12/03 08:30:27;;;;;;;42.35;24.27;;;5.70;99.90;;;;;;5032835;28;20055;-89
2022/12/03 08:32:52;;;;;;;43.08;26.38;;;5.70;99.90;;;;;;5037689;28;20358;-88
2022/12/03 08:35:22;;;;;;;40.60;24.85;;;5.90;99.90;;;;;;5051311;28;20033;-89
2022/12/03 08:37:56;;;;;;;40.42;24.27;;;5.90;99.90;;;;;;5052291;28;20483;-89
2022/12/03 08:40:34;;;;;;;37.38;23.27;;;5.90;99.90;;;;;;5051229;28;20129;-88
2022/12/03 08:43:00;;;;;;;39.45;24.08;;;6.10;99.90;;;;;;5052521;28;20053;-88
2022/12/03 08:45:29;;;;;;;39.58;23.98;;;6.00;99.90;;;;;;5050572;28;20090;-89
2022/12/03 08:47:59;;;;;;;39.30;23.95;;;6.00;99.90;;;;;;5052473;28;20494;-88
2022/12/03 08:50:26;;;;;;;47.20;28.10;;;6.00;99.90;;;;;;5052321;28;20017;-88
2022/12/03 08:52:53;;;;;;;41.88;26.27;;;6.00;99.90;;;;;;5051999;28;20492;-89
2022/12/03 08:55:35;;;;;;;37.45;23.05;;;6.00;99.90;;;;;;5051076;28;20432;-89
2022/12/03 08:58:17;;;;;;;39.90;24.17;;;6.10;99.90;;;;;;5050953;28;20478;-88
2022/12/03 09:00:43;;;;;;;39.90;24.60;;;6.20;99.90;;;;;;5052352;28;20029;-88
2022/12/03 09:03:17;;;;;;;39.05;24.02;;;6.20;99.90;;;;;;5052369;28;20028;-89
2022/12/03 09:05:42;;;;;;;38.15;24.25;;;6.20;99.90;;;;;;5052183;28;20489;-88
2022/12/03 09:08:08;;;;;;;40.80;23.50;;;6.20;99.90;;;;;;5051833;28;20017;-89
2022/12/03 09:10:34;;;;;;;38.38;23.45;;;6.50;99.90;;;;;;5052283;28;20037;-88
2022/12/03 09:12:59;;;;;;;40.70;23.20;;;6.60;99.90;;;;;;5052282;28;20458;-88
2022/12/03 09:15:25;;;;;;;38.65;23.50;;;6.30;99.90;;;;;;5052289;28;20033;-88
2022/12/03 09:17:50;;;;;;;40.45;24.02;;;6.50;99.90;;;;;;5048138;28;20025;-88
2022/12/03 09:20:16;;;;;;;37.08;23.55;;;6.30;99.90;;;;;;5032322;28;20039;-89
2022/12/03 09:22:41;;;;;;;40.03;24.27;;;6.30;99.90;;;;;;5031961;28;20029;-89
2022/12/03 09:25:07;;;;;;;44.05;25.73;;;6.20;99.90;;;;;;5031938;28;20085;-89
2022/12/03 09:27:33;;;;;;;41.05;23.38;;;6.20;99.90;;;;;;5030903;28;20500;-89
2022/12/03 09:29:59;;;;;;;38.60;23.88;;;6.30;99.90;;;;;;5032440;28;20029;-88
2022/12/03 09:32:25;;;;;;;36.60;23.33;;;6.20;99.90;;;;;;5032097;28;20497;-89
2022/12/03 09:34:50;;;;;;;39.83;24.20;;;6.10;99.90;;;;;;5050763;28;20056;-89
2022/12/03 09:37:16;;;;;;;39.88;23.13;;;6.10;99.90;;;;;;5051625;28;20021;-88
2022/12/03 09:39:42;;;;;;;42.17;25.10;;;6.10;99.90;;;;;;5050775;28;20123;-88
2022/12/03 09:42:09;;;;;;;38.33;23.88;;;6.00;99.90;;;;;;5052039;28;20018;-88
2022/12/03 09:44:35;;;;;;;41.75;24.73;;;6.10;99.90;;;;;;5051715;28;20489;-89
2022/12/03 09:47:02;;;;;;;45.70;26.30;;;6.40;99.90;;;;;;5052000;28;20397;-89
2022/12/03 09:49:31;;;;;;;46.15;27.23;;;6.00;99.90;;;;;;5051908;28;20029;-89
2022/12/03 09:51:59;;;;;;;44.50;26.02;;;6.00;99.90;;;;;;5051595;28;20021;-89
2022/12/03 09:54:27;;;;;;;44.40;25.25;;;6.10;99.90;;;;;;5050540;28;20041;-89
2022/12/03 09:56:54;;;;;;;50.72;26.73;;;6.10;99.90;;;;;;5053823;28;20032;-88
2022/12/03 09:59:21;;;;;;;47.42;27.67;;;6.00;99.90;;;;;;5055553;28;20024;-89
2022/12/03 10:01:47;;;;;;;49.35;27.60;;;6.10;99.90;;;;;;5055386;28;20021;-88
2022/12/03 10:04:13;;;;;;;51.10;27.52;;;6.20;99.90;;;;;;5055340;28;20393;-89
2022/12/03 10:06:39;;;;;;;51.17;28.05;;;6.20;99.90;;;;;;5055003;28;20116;-89
2022/12/03 10:09:05;;;;;;;44.30;25.80;;;6.20;99.90;;;;;;5055090;28;20021;-88
2022/12/03 10:11:33;;;;;;;44.55;26.58;;;6.60;99.90;;;;;;5055135;28;20029;-88
2022/12/03 10:13:59;;;;;;;49.17;27.40;;;6.30;99.90;;;;;;5055129;28;20013;-89
2022/12/03 10:16:26;;;;;;;48.80;27.42;;;6.30;99.90;;;;;;5053869;28;20481;-88
2022/12/03 10:18:54;;;;;;;47.53;27.00;;;6.40;99.90;;;;;;5042664;28;20098;-89
2022/12/03 10:21:31;;;;;;;68.47;39.55;;;6.30;99.90;;;;;;5034655;28;20072;-88
2022/12/03 10:24:15;;;;;;;54.08;29.35;;;6.20;99.90;;;;;;5034901;28;20033;-88
2022/12/03 10:26:41;;;;;;;47.78;26.10;;;6.60;99.90;;;;;;5035045;28;20049;-88
2022/12/03 10:29:25;;;;;;;44.25;26.95;;;6.30;99.90;;;;;;5034979;28;20022;-88
2022/12/03 10:31:56;;;;;;;46.22;25.08;;;6.10;99.90;;;;;;5034941;28;20021;-89
2022/12/03 10:34:33;;;;;;;51.85;29.23;;;6.30;99.90;;;;;;5051628;28;20108;-89
2022/12/03 10:37:22;;;;;;;49.70;26.73;;;6.00;99.90;;;;;;5054804;28;20112;-89
2022/12/03 10:40:08;;;;;;;49.97;28.00;;;6.20;99.90;;;;;;5048001;28;20033;-89
2022/12/03 10:42:39;;;;;;;53.03;28.67;;;6.10;99.90;;;;;;5054730;28;20516;-88
2022/12/03 10:45:21;;;;;;;45.47;26.65;;;6.20;99.90;;;;;;5053180;28;20041;-89
2022/12/03 10:48:01;;;;;;;49.45;29.35;;;6.30;99.90;;;;;;5054427;28;20028;-88
2022/12/03 10:50:27;;;;;;;48.33;26.77;;;6.50;99.90;;;;;;5054208;28;20025;-89
2022/12/03 10:52:53;;;;;;;46.78;27.35;;;6.70;99.90;;;;;;5054455;28;20029;-89
2022/12/03 10:55:19;;;;;;;47.83;27.00;;;6.90;99.90;;;;;;5054344;28;20029;-89
2022/12/03 10:57:44;;;;;;;45.42;26.70;;;6.60;99.90;;;;;;5054297;28;20103;-89
2022/12/03 11:00:18;;;;;;;47.88;26.85;;;6.90;99.90;;;;;;5054345;28;20025;-89
2022/12/03 11:02:45;;;;;;;44.85;27.33;;;6.90;99.90;;;;;;5053982;28;20017;-88
2022/12/03 11:05:22;;;;;;;45.03;27.23;;;7.20;99.90;;;;;;5054050;28;20091;-89
2022/12/03 11:07:48;;;;;;;46.85;26.58;;;7.30;99.90;;;;;;5052541;28;20083;-89
2022/12/03 11:10:17;;;;;;;47.60;28.20;;;7.20;99.90;;;;;;5054128;28;20029;-89
2022/12/03 11:13:21;;;;;;;44.33;26.13;;;7.30;99.90;;;;;;5054168;28;20028;-88
2022/12/03 11:15:47;;;;;;;48.13;27.52;;;6.60;99.90;;;;;;5053820;28;20104;-89
2022/12/03 11:18:36;;;;;;;44.22;24.75;;;6.70;99.90;;;;;;5046663;28;20091;-89
2022/12/03 11:21:14;;;;;;;41.03;25.52;;;6.60;99.90;;;;;;5033836;28;20060;-89
2022/12/03 11:23:45;;;;;;;43.28;26.35;;;6.60;99.90;;;;;;5033879;28;20507;-89
2022/12/03 11:26:12;;;;;;;43.70;25.33;;;6.60;99.90;;;;;;5033869;28;20056;-88
2022/12/03 11:28:58;;;;;;;47.40;27.00;;;6.50;99.90;;;;;;5033835;28;20064;-88
2022/12/03 11:31:36;;;;;;;41.63;26.00;;;6.90;99.90;;;;;;5033664;28;20095;-88
2022/12/03 11:34:17;;;;;;;42.17;25.83;;;6.80;99.90;;;;;;5048198;28;20503;-89
2022/12/03 11:37:10;;;;;;;41.08;23.85;;;6.70;99.90;;;;;;5053653;28;20027;-89
2022/12/03 11:39:48;;;;;;;45.10;26.08;;;6.60;99.90;;;;;;5053591;28;20029;-88
2022/12/03 11:42:25;;;;;;;43.42;26.50;;;6.60;99.90;;;;;;5053685;28;20036;-88
2022/12/03 11:45:03;;;;;;;42.42;25.27;;;6.60;99.90;;;;;;5053260;28;20036;-88
2022/12/03 11:47:37;;;;;;;39.42;24.67;;;6.70;99.90;;;;;;5053164;28;20086;-89
2022/12/03 11:50:17;;;;;;;40.05;23.42;;;6.90;99.90;;;;;;5053527;28;20055;-89
2022/12/03 11:52:45;;;;;;;38.50;22.95;;;6.70;99.90;;;;;;5053396;28;20040;-88
2022/12/03 11:55:22;;;;;;;42.25;24.80;;;7.20;99.90;;;;;;5053162;28;20543;-88
2022/12/03 11:57:48;;;;;;;38.35;24.08;;;6.80;99.90;;;;;;5053134;28;20078;-88
2022/12/03 12:00:20;;;;;;;40.90;25.02;;;6.70;99.90;;;;;;5053265;28;20545;-89
2022/12/03 12:02:45;;;;;;;44.88;27.08;;;6.70;99.90;;;;;;5051593;28;20080;-89
2022/12/03 12:05:16;;;;;;;40.60;24.55;;;6.80;99.90;;;;;;5053061;28;20060;-89
2022/12/03 12:07:44;;;;;;;42.95;25.60;;;7.00;99.90;;;;;;5053139;28;20032;-88
2022/12/03 12:10:10;;;;;;;41.67;25.50;;;6.90;99.90;;;;;;5053082;28;20025;-88
2022/12/03 12:12:38;;;;;;;39.67;25.15;;;7.10;99.90;;;;;;5052863;28;20037;-88
2022/12/03 12:15:38;;;;;;;42.63;25.15;;;7.70;99.90;;;;;;5052921;28;20029;-89
2022/12/03 12:18:41;;;;;;;47.13;31.00;;;7.30;99.90;;;;;;5046966;28;20033;-88
2022/12/03 12:21:41;;;;;;;51.30;37.70;;;7.40;99.90;;;;;;5033003;28;20099;-89
2022/12/03 12:24:44;;;;;;;44.20;32.45;;;7.30;99.90;;;;;;5031512;28;20417;-89
2022/12/03 12:27:29;;;;;;;38.50;23.42;;;7.20;99.90;;;;;;5032814;28;20033;-88
2022/12/03 12:29:57;;;;;;;39.45;25.02;;;7.20;99.90;;;;;;5032447;28;20033;-88
2022/12/03 12:33:06;;;;;;;38.15;24.27;;;7.40;99.90;;;;;;5033691;28;20029;-89
2022/12/03 12:35:32;;;;;;;35.33;23.23;;;7.40;99.90;;;;;;5047880;28;20498;-89
2022/12/03 12:38:07;;;;;;;35.95;22.65;;;7.50;99.90;;;;;;5052592;28;20096;-89
2022/12/03 12:40:34;;;;;;;40.10;23.35;;;7.30;99.90;;;;;;5052564;28;20029;-88
2022/12/03 12:43:10;;;;;;;39.08;23.65;;;7.30;99.90;;;;;;5051232;28;20392;-89
2022/12/03 12:45:38;;;;;;;49.92;34.85;;;7.30;99.90;;;;;;5052103;28;20565;-88
2022/12/03 12:48:14;;;;;;;38.67;23.80;;;7.00;99.90;;;;;;5051323;28;20025;-89
2022/12/03 12:50:45;;;;;;;37.92;23.88;;;7.30;99.90;;;;;;5052388;28;20029;-89
2022/12/03 12:53:26;;;;;;;36.60;24.00;;;7.30;99.90;;;;;;5052474;28;20044;-89
2022/12/03 12:56:00;;;;;;;35.67;23.67;;;7.50;99.90;;;;;;5052363;28;20054;-89
2022/12/03 12:58:29;;;;;;;39.63;24.02;;;7.60;99.90;;;;;;5052220;28;20043;-89
2022/12/03 13:00:57;;;;;;;37.65;23.30;;;7.20;99.90;;;;;;5051985;28;20038;-89
2022/12/03 13:03:27;;;;;;;48.97;31.25;;;7.20;99.90;;;;;;5052276;28;20024;-88